Observation data for Seminole on 11/17/2019      Previous  Date       Current Mesonet Observations  Soil Data  Daily Summary Page  Observations in Plain Language
KSM1 170600Z 26006KT 06/03 A2998 RMK A01 T00600025  RH  080%=      5-min Rain = 0
KSM1 170605Z 26007KT 06/03 A2998 RMK A01 T00610026  RH  080%=      5-min Rain = 0
KSM1 170610Z 25007KT 06/03 A2998 RMK A01 T00620028  RH  080%=      5-min Rain = 0
KSM1 170615Z 25006KT 06/03 A2998 RMK A01 T00620028  RH  081%=      5-min Rain = 0
KSM1 170620Z 25006KT 06/03 A2998 RMK A01 T00620030  RH  081%=      5-min Rain = 0
KSM1 170625Z 25007KT 06/03 A2998 RMK A01 T00630031  RH  081%=      5-min Rain = 0
KSM1 170630Z 25007KT 06/03 A2998 RMK A01 T00640031  RH  081%=      5-min Rain = 0
KSM1 170635Z 25007KT 06/03 A2998 RMK A01 T00640031  RH  081%=      5-min Rain = 0
KSM1 170640Z 25006KT 06/03 A2997 RMK A01 T00620030  RH  081%=      5-min Rain = 0
KSM1 170645Z 24006KT 06/03 A2997 RMK A01 T00610030  RH  082%=      5-min Rain = 0
KSM1 170650Z 24007KT 06/03 A2997 RMK A01 T00610031  RH  082%=      5-min Rain = 0
KSM1 170655Z 25006KT 06/03 A2997 RMK A01 T00610031  RH  082%=      5-min Rain = 0
KSM1 170700Z 25006KT 06/03 A2997 RMK A01 T00600031  RH  083%=      5-min Rain = 0
KSM1 170705Z 25007KT 06/03 A2997 RMK A01 T00600031  RH  083%=      5-min Rain = 0
KSM1 170710Z 25006KT 06/03 A2997 RMK A01 T00600031  RH  083%=      5-min Rain = 0
KSM1 170715Z 25006KT 06/03 A2997 RMK A01 T00590031  RH  083%=      5-min Rain = 0
KSM1 170720Z 25006KT 06/03 A2997 RMK A01 T00590030  RH  084%=      5-min Rain = 0
KSM1 170725Z 24007KT 06/03 A2997 RMK A01 T00580030  RH  084%=      5-min Rain = 0
KSM1 170730Z 24009KT 06/03 A2997 RMK A01 T00590032  RH  084%=      5-min Rain = 0
KSM1 170735Z 24009KT 06/03 A2996 RMK A01 T00600031  RH  083%=      5-min Rain = 0
KSM1 170740Z 24009KT 06/03 A2996 RMK A01 T00590030  RH  083%=      5-min Rain = 0
KSM1 170745Z 25007KT 06/03 A2996 RMK A01 T00570029  RH  084%=      5-min Rain = 0
KSM1 170750Z 25008KT 06/03 A2996 RMK A01 T00560030  RH  085%=      5-min Rain = 0
KSM1 170755Z 25009KT 06/03 A2996 RMK A01 T00580032  RH  085%=      5-min Rain = 0
KSM1 170800Z 25010KT 06/03 A2996 RMK A01 T00600033  RH  084%=      5-min Rain = 0
KSM1 170805Z 25009KT 06/03 A2996 RMK A01 T00620033  RH  083%=      5-min Rain = 0
KSM1 170810Z 25008KT 06/03 A2996 RMK A01 T00610032  RH  083%=      5-min Rain = 0
KSM1 170815Z 25007KT 06/03 A2996 RMK A01 T00580031  RH  084%=      5-min Rain = 0
KSM1 170820Z 25008KT 06/03 A2996 RMK A01 T00580030  RH  084%=      5-min Rain = 0
KSM1 170825Z 25006KT 06/03 A2996 RMK A01 T00570030  RH  084%=      5-min Rain = 0
KSM1 170830Z 25007KT 06/03 A2996 RMK A01 T00560030  RH  085%=      5-min Rain = 0
KSM1 170835Z 25006KT 06/03 A2996 RMK A01 T00550029  RH  085%=      5-min Rain = 0
KSM1 170840Z 25006KT 05/03 A2997 RMK A01 T00540028  RH  085%=      5-min Rain = 0
KSM1 170845Z 25007KT 05/03 A2997 RMK A01 T00540029  RH  085%=      5-min Rain = 0
KSM1 170850Z 25006KT 06/03 A2997 RMK A01 T00550029  RH  085%=      5-min Rain = 0
KSM1 170855Z 26007KT 06/03 A2997 RMK A01 T00570029  RH  084%=      5-min Rain = 0
KSM1 170900Z 26008KT 06/03 A2997 RMK A01 T00620028  RH  080%=      5-min Rain = 0
KSM1 170905Z 26008KT 07/03 A2997 RMK A01 T00650026  RH  077%=      5-min Rain = 0
KSM1 170910Z 26009KT 07/02 A2997 RMK A01 T00700024  RH  074%=      5-min Rain = 0
KSM1 170915Z 27009KT 08/02 A2997 RMK A01 T00750021  RH  070%=      5-min Rain = 0
KSM1 170920Z 27009KT 08/02 A2997 RMK A01 T00790017  RH  066%=      5-min Rain = 0
KSM1 170925Z 28009KT 08/02 A2998 RMK A01 T00800016  RH  065%=      5-min Rain = 0
KSM1 170930Z 29007KT 08/02 A2998 RMK A01 T00760016  RH  066%=      5-min Rain = 0
KSM1 170935Z 30008KT 07/01 A2998 RMK A01 T00740013  RH  066%=      5-min Rain = 0
KSM1 170940Z 30008KT 08/01 A2998 RMK A01 T00780009  RH  062%=      5-min Rain = 0
KSM1 170945Z 31008KT 08/01 A2998 RMK A01 T00780008  RH  062%=      5-min Rain = 0
KSM1 170950Z 31008KT 08/01 A2998 RMK A01 T00750007  RH  063%=      5-min Rain = 0
KSM1 170955Z 32008KT 07/01 A2998 RMK A01 T00730006  RH  063%=      5-min Rain = 0
KSM1 171000Z 32008KT 07/01 A2998 RMK A01 T00700006  RH  065%=      5-min Rain = 0
KSM1 171005Z 33009KT 07/01 A2998 RMK A01 T00660005  RH  066%=      5-min Rain = 0
KSM1 171010Z 33010KT 07/00 A2999 RMK A01 T00650004  RH  066%=      5-min Rain = 0
KSM1 171015Z 34013KT 07/00 A30 RMK A01 T00700003  RH  063%=      5-min Rain = 0
KSM1 171020Z 36016G21KT 08/00 A30 RMK A01 T00770003  RH  060%=      5-min Rain = 0
KSM1 171025Z 00017G23KT 08/00 A30 RMK A01 T00810002  RH  058%=      5-min Rain = 0
KSM1 171030Z 01020G30KT 08/00 A30 RMK A01 T00840000  RH  056%=      5-min Rain = 0
KSM1 171035Z 01021G27KT 09/M00 A3001 RMK A01 T00881002  RH  054%=      5-min Rain = 0
KSM1 171040Z 00019G25KT 09/M00 A3002 RMK A01 T00891002  RH  054%=      5-min Rain = 0
KSM1 171045Z 00018G24KT 09/M00 A3002 RMK A01 T00881002  RH  054%=      5-min Rain = 0
KSM1 171050Z 00018G25KT 09/M00 A3002 RMK A01 T00871003  RH  054%=      5-min Rain = 0
KSM1 171055Z 36020G26KT 09/M01 A3003 RMK A01 T00871005  RH  053%=      5-min Rain = 0
KSM1 171100Z 00020G26KT 09/M01 A3003 RMK A01 T00881007  RH  052%=      5-min Rain = 0
KSM1 171105Z 00018G24KT 09/M01 A3003 RMK A01 T00861008  RH  052%=      5-min Rain = 0
KSM1 171110Z 36016G21KT 08/M01 A3003 RMK A01 T00831009  RH  053%=      5-min Rain = 0
KSM1 171115Z 36016G23KT 08/M01 A3004 RMK A01 T00821010  RH  053%=      5-min Rain = 0
KSM1 171120Z 00016G24KT 08/M01 A3004 RMK A01 T00821011  RH  053%=      5-min Rain = 0
KSM1 171125Z 00015G20KT 08/M01 A3004 RMK A01 T00811011  RH  053%=      5-min Rain = 0
KSM1 171130Z 00015G20KT 08/M01 A3004 RMK A01 T00801012  RH  053%=      5-min Rain = 0
KSM1 171135Z 36016G21KT 08/M01 A3004 RMK A01 T00801012  RH  053%=      5-min Rain = 0
KSM1 171140Z 00015KT 08/M01 A3004 RMK A01 T00801012  RH  053%=      5-min Rain = 0
KSM1 171145Z 00015KT 08/M01 A3005 RMK A01 T00791012  RH  053%=      5-min Rain = 0
KSM1 171150Z 36015G20KT 08/M01 A3005 RMK A01 T00801012  RH  053%=      5-min Rain = 0
KSM1 171155Z 00016G21KT 08/M01 A3005 RMK A01 T00801013  RH  052%=      5-min Rain = 0
KSM1 171200Z 00015G20KT 08/M01 A3006 RMK A01 T00801012  RH  052%=      5-min Rain = 0
KSM1 171205Z 00015G21KT 08/M01 A3006 RMK A01 T00801012  RH  053%=      5-min Rain = 0
KSM1 171210Z 36014G20KT 08/M01 A3006 RMK A01 T00791012  RH  053%=      5-min Rain = 0
KSM1 171215Z 36015KT 08/M01 A3007 RMK A01 T00781012  RH  053%=      5-min Rain = 0
KSM1 171220Z 00015KT 08/M01 A3007 RMK A01 T00781012  RH  053%=      5-min Rain = 0
KSM1 171225Z 00015KT 08/M01 A3008 RMK A01 T00771012  RH  054%=      5-min Rain = 0
KSM1 171230Z 00014G19KT 08/M01 A3008 RMK A01 T00761012  RH  054%=      5-min Rain = 0
KSM1 171235Z 00014G20KT 08/M01 A3009 RMK A01 T00751012  RH  055%=      5-min Rain = 0
KSM1 171240Z 00014G19KT 07/M01 A3009 RMK A01 T00741011  RH  055%=      5-min Rain = 0
KSM1 171245Z 00014G19KT 07/M01 A301 RMK A01 T00731011  RH  055%=      5-min Rain = 0
KSM1 171250Z 00013KT 07/M01 A301 RMK A01 T00721011  RH  056%=      5-min Rain = 0
KSM1 171255Z 00014G21KT 07/M01 A3011 RMK A01 T00721011  RH  056%=      5-min Rain = 0
KSM1 171300Z 00012KT 07/M01 A3011 RMK A01 T00711010  RH  057%=      5-min Rain = 0
KSM1 171305Z 00013KT 07/M01 A3011 RMK A01 T00701010  RH  057%=      5-min Rain = 0
KSM1 171310Z 00013KT 07/M01 A3011 RMK A01 T00691010  RH  058%=      5-min Rain = 0
KSM1 171315Z 00013G18KT 07/M01 A3012 RMK A01 T00691009  RH  058%=      5-min Rain = 0
KSM1 171320Z 36013KT 07/M01 A3012 RMK A01 T00691009  RH  058%=      5-min Rain = 0
KSM1 171325Z 36012KT 07/M01 A3013 RMK A01 T00681009  RH  059%=      5-min Rain = 0
KSM1 171330Z 36012KT 07/M01 A3013 RMK A01 T00671009  RH  059%=      5-min Rain = 0
KSM1 171335Z 36012G17KT 07/M01 A3014 RMK A01 T00671009  RH  059%=      5-min Rain = 0
KSM1 171340Z 36013KT 07/M01 A3014 RMK A01 T00671008  RH  059%=      5-min Rain = 0
KSM1 171345Z 36013G18KT 07/M01 A3015 RMK A01 T00671007  RH  060%=      5-min Rain = 0
KSM1 171350Z 36015G20KT 07/M01 A3015 RMK A01 T00681007  RH  059%=      5-min Rain = 0
KSM1 171355Z 00015G21KT 07/M01 A3015 RMK A01 T00691006  RH  059%=      5-min Rain = 0
KSM1 171400Z 00016G21KT 07/M01 A3016 RMK A01 T00701005  RH  059%=      5-min Rain = 0
KSM1 171405Z 00016G21KT 07/M00 A3016 RMK A01 T00721004  RH  059%=      5-min Rain = 0
KSM1 171410Z 01015G23KT 07/M00 A3016 RMK A01 T00731003  RH  059%=      5-min Rain = 0
KSM1 171415Z 00016G21KT 07/M00 A3016 RMK A01 T00741002  RH  059%=      5-min Rain = 0
KSM1 171420Z 00017G22KT 08/M00 A3017 RMK A01 T00751002  RH  059%=      5-min Rain = 0
KSM1 171425Z 01017KT 08/M00 A3017 RMK A01 T00771001  RH  059%=      5-min Rain = 0
KSM1 171430Z 00018G23KT 08/00 A3017 RMK A01 T007800-0  RH  058%=      5-min Rain = 0
KSM1 171435Z 00018G23KT 08/00 A3017 RMK A01 T00790001  RH  058%=      5-min Rain = 0
KSM1 171440Z 01018G23KT 08/00 A3018 RMK A01 T00810002  RH  058%=      5-min Rain = 0
KSM1 171445Z 01020G27KT 08/00 A3018 RMK A01 T00830002  RH  058%=      5-min Rain = 0
KSM1 171450Z 01018G26KT 08/00 A3018 RMK A01 T00840003  RH  057%=      5-min Rain = 0
KSM1 171455Z 01019G24KT 09/00 A3018 RMK A01 T00850003  RH  057%=      5-min Rain = 0
KSM1 171500Z 01018G23KT 09/00 A3018 RMK A01 T00870004  RH  057%=      5-min Rain = 0
KSM1 171505Z 01018G25KT 09/01 A3018 RMK A01 T00890005  RH  056%=      5-min Rain = 0
KSM1 171510Z 01019G24KT 09/00 A3019 RMK A01 T00890004  RH  056%=      5-min Rain = 0
KSM1 171515Z 01017G24KT 09/01 A3019 RMK A01 T00910005  RH  056%=      5-min Rain = 0
KSM1 171520Z 01019G25KT 09/01 A3019 RMK A01 T00910005  RH  055%=      5-min Rain = 0
KSM1 171525Z 01020G26KT 09/01 A3019 RMK A01 T00920005  RH  055%=      5-min Rain = 0
KSM1 171530Z 01020G26KT 09/01 A3019 RMK A01 T00930005  RH  054%=      5-min Rain = 0
KSM1 171535Z 01017G24KT 10/01 A3019 RMK A01 T00950006  RH  054%=      5-min Rain = 0
KSM1 171540Z 01017G25KT 10/01 A3019 RMK A01 T00990006  RH  053%=      5-min Rain = 0
KSM1 171545Z 01018G23KT 10/01 A3019 RMK A01 T01000006  RH  053%=      5-min Rain = 0
KSM1 171550Z 01018G25KT 10/01 A3019 RMK A01 T01010006  RH  052%=      5-min Rain = 0
KSM1 171555Z 01020G25KT 10/01 A3019 RMK A01 T01010005  RH  052%=      5-min Rain = 0
KSM1 171600Z 01021G27KT 10/01 A302 RMK A01 T01000005  RH  052%=      5-min Rain = 0
KSM1 171605Z 01020G26KT 10/01 A302 RMK A01 T01020005  RH  052%=      5-min Rain = 0
KSM1 171610Z 01018G25KT 11/01 A302 RMK A01 T01050007  RH  051%=      5-min Rain = 0
KSM1 171615Z 01020G27KT 11/01 A3019 RMK A01 T01060006  RH  051%=      5-min Rain = 0
KSM1 171620Z 02015G21KT 11/01 A3019 RMK A01 T01090008  RH  051%=      5-min Rain = 0
KSM1 171625Z 02018G23KT 11/01 A3019 RMK A01 T01110007  RH  049%=      5-min Rain = 0
KSM1 171630Z 02020G25KT 11/01 A3019 RMK A01 T01090006  RH  049%=      5-min Rain = 0
KSM1 171635Z 02017G23KT 11/01 A3019 RMK A01 T01110007  RH  049%=      5-min Rain = 0
KSM1 171640Z 02017G23KT 11/01 A3019 RMK A01 T01140007  RH  048%=      5-min Rain = 0
KSM1 171645Z 01017G22KT 12/01 A3019 RMK A01 T01150006  RH  048%=      5-min Rain = 0
KSM1 171650Z 02018KT 12/01 A3019 RMK A01 T01170006  RH  047%=      5-min Rain = 0
KSM1 171655Z 01017G24KT 12/01 A3019 RMK A01 T01180006  RH  047%=      5-min Rain = 0
KSM1 171700Z 01016G22KT 12/01 A3019 RMK A01 T01230006  RH  045%=      5-min Rain = 0
KSM1 171705Z 01019G24KT 12/01 A3019 RMK A01 T01220005  RH  045%=      5-min Rain = 0
KSM1 171710Z 02019G24KT 12/01 A3019 RMK A01 T01220005  RH  045%=      5-min Rain = 0
KSM1 171715Z 02017KT 12/01 A3019 RMK A01 T01240006  RH  045%=      5-min Rain = 0
KSM1 171720Z 02015G20KT 13/01 A3019 RMK A01 T01260006  RH  044%=      5-min Rain = 0
KSM1 171725Z 01015KT 13/01 A3019 RMK A01 T01270005  RH  044%=      5-min Rain = 0
KSM1 171730Z 01014G19KT 13/01 A3019 RMK A01 T01300006  RH  043%=      5-min Rain = 0
KSM1 171735Z 01014G19KT 13/01 A3019 RMK A01 T01330005  RH  042%=      5-min Rain = 0
KSM1 171740Z 02014G19KT 14/01 A3019 RMK A01 T01350007  RH  042%=      5-min Rain = 0
KSM1 171745Z 03014KT 14/01 A3019 RMK A01 T01350006  RH  042%=      5-min Rain = 0
KSM1 171750Z 01012KT 14/01 A3019 RMK A01 T01360006  RH  041%=      5-min Rain = 0
KSM1 171755Z 02014KT 14/01 A3019 RMK A01 T01380005  RH  041%=      5-min Rain = 0
KSM1 171800Z 02011G16KT 14/01 A3019 RMK A01 T01390006  RH  041%=      5-min Rain = 0
KSM1 171805Z 02011G16KT 14/01 A3019 RMK A01 T01420005  RH  040%=      5-min Rain = 0
KSM1 171810Z 02011KT 14/01 A3018 RMK A01 T01420006  RH  040%=      5-min Rain = 0
KSM1 171815Z 02012G17KT 14/01 A3018 RMK A01 T01440005  RH  039%=      5-min Rain = 0
KSM1 171820Z 02010KT 14/01 A3018 RMK A01 T01430005  RH  039%=      5-min Rain = 0
KSM1 171825Z 02010KT 15/01 A3018 RMK A01 T01450005  RH  039%=      5-min Rain = 0
KSM1 171830Z 02009KT 15/01 A3018 RMK A01 T01480005  RH  038%=      5-min Rain = 0
KSM1 171835Z 04010G15KT 15/01 A3018 RMK A01 T01490005  RH  038%=      5-min Rain = 0
KSM1 171840Z 02012G18KT 15/00 A3017 RMK A01 T01490002  RH  037%=      5-min Rain = 0
KSM1 171845Z 01009KT 15/00 A3017 RMK A01 T01520003  RH  037%=      5-min Rain = 0
KSM1 171850Z 01009KT 15/00 A3016 RMK A01 T01520004  RH  037%=      5-min Rain = 0
KSM1 171855Z 03011KT 15/00 A3016 RMK A01 T01530003  RH  036%=      5-min Rain = 0
KSM1 171900Z 02011KT 15/00 A3016 RMK A01 T01520002  RH  036%=      5-min Rain = 0
KSM1 171905Z 02009KT 15/00 A3016 RMK A01 T01530002  RH  036%=      5-min Rain = 0
KSM1 171910Z 04010KT 16/00 A3015 RMK A01 T01550002  RH  036%=      5-min Rain = 0
KSM1 171915Z 03009KT 16/00 A3015 RMK A01 T01570002  RH  035%=      5-min Rain = 0
KSM1 171920Z 04009G14KT 16/00 A3015 RMK A01 T01550001  RH  036%=      5-min Rain = 0
KSM1 171925Z 03009KT 16/00 A3015 RMK A01 T01560001  RH  035%=      5-min Rain = 0
KSM1 171930Z 03008KT 16/00 A3015 RMK A01 T01570001  RH  035%=      5-min Rain = 0
KSM1 171935Z 04008G14KT 16/00 A3014 RMK A01 T01600002  RH  034%=      5-min Rain = 0
KSM1 171940Z 04007KT 16/00 A3015 RMK A01 T015900-0  RH  034%=      5-min Rain = 0
KSM1 171945Z 02007KT 16/00 A3014 RMK A01 T01590001  RH  034%=      5-min Rain = 0
KSM1 171950Z 03007G12KT 16/00 A3014 RMK A01 T01590000  RH  034%=      5-min Rain = 0
KSM1 171955Z 03007G12KT 16/00 A3014 RMK A01 T01610000  RH  034%=      5-min Rain = 0
KSM1 172000Z 02008KT 16/00 A3013 RMK A01 T016300-0  RH  033%=      5-min Rain = 0
KSM1 172005Z 02009KT 16/M00 A3013 RMK A01 T01611002  RH  033%=      5-min Rain = 0
KSM1 172010Z 03008KT 16/M00 A3013 RMK A01 T01631004  RH  033%=      5-min Rain = 0
KSM1 172015Z 02007G12KT 16/M00 A3013 RMK A01 T01621003  RH  033%=      5-min Rain = 0
KSM1 172020Z 02007KT 16/M00 A3013 RMK A01 T01631003  RH  033%=      5-min Rain = 0
KSM1 172025Z 01008G14KT 16/M00 A3012 RMK A01 T01631003  RH  033%=      5-min Rain = 0
KSM1 172030Z 03009KT 17/M01 A3012 RMK A01 T01651006  RH  031%=      5-min Rain = 0
KSM1 172035Z 02008KT 17/M00 A3012 RMK A01 T01661004  RH  032%=      5-min Rain = 0
KSM1 172040Z 03007G12KT 17/M01 A3012 RMK A01 T01671005  RH  031%=      5-min Rain = 0
KSM1 172045Z 03007KT 17/M01 A3012 RMK A01 T01671006  RH  031%=      5-min Rain = 0
KSM1 172050Z 01007KT 17/M01 A3012 RMK A01 T01651005  RH  032%=      5-min Rain = 0
KSM1 172055Z 03008KT 17/M01 A3012 RMK A01 T01661009  RH  031%=      5-min Rain = 0
KSM1 172100Z 04007KT 17/M01 A3012 RMK A01 T01671007  RH  031%=      5-min Rain = 0
KSM1 172105Z 02008G13KT 17/M01 A3012 RMK A01 T01671007  RH  031%=      5-min Rain = 0
KSM1 172110Z 03009KT 17/M01 A3012 RMK A01 T01651008  RH  031%=      5-min Rain = 0
KSM1 172115Z 03007KT 17/M01 A3012 RMK A01 T01661008  RH  031%=      5-min Rain = 0
KSM1 172120Z 03006KT 16/M01 A3012 RMK A01 T01641007  RH  031%=      5-min Rain = 0
KSM1 172125Z 02006KT 16/M01 A3012 RMK A01 T01631006  RH  032%=      5-min Rain = 0
KSM1 172130Z 02007KT 17/M01 A3012 RMK A01 T01651009  RH  031%=      5-min Rain = 0
KSM1 172135Z 03005KT 16/M01 A3012 RMK A01 T01641008  RH  031%=      5-min Rain = 0
KSM1 172140Z 04005KT 16/M01 A3012 RMK A01 T01641009  RH  031%=      5-min Rain = 0
KSM1 172145Z 02008KT 17/M01 A3011 RMK A01 T01651009  RH  031%=      5-min Rain = 0
KSM1 172150Z 03007KT 17/M01 A3011 RMK A01 T01651007  RH  031%=      5-min Rain = 0
KSM1 172155Z 04008KT 17/M01 A3011 RMK A01 T01651007  RH  031%=      5-min Rain = 0
KSM1 172200Z 03007KT 16/M01 A3011 RMK A01 T01641009  RH  031%=      5-min Rain = 0
KSM1 172205Z 03005KT 16/M01 A3011 RMK A01 T01631010  RH  031%=      5-min Rain = 0
KSM1 172210Z 03006KT 16/M01 A3011 RMK A01 T01621007  RH  032%=      5-min Rain = 0
KSM1 172215Z 04006KT 16/M01 A3011 RMK A01 T01621005  RH  032%=      5-min Rain = 0
KSM1 172220Z 03007KT 16/M01 A301 RMK A01 T01601005  RH  033%=      5-min Rain = 0
KSM1 172225Z 01005KT 16/M01 A301 RMK A01 T01591007  RH  032%=      5-min Rain = 0
KSM1 172230Z 02004KT 16/M01 A301 RMK A01 T01581006  RH  033%=      5-min Rain = 0
KSM1 172235Z 03005KT 16/M00 A301 RMK A01 T01571004  RH  034%=      5-min Rain = 0
KSM1 172240Z 02004KT 16/M01 A301 RMK A01 T01571005  RH  033%=      5-min Rain = 0
KSM1 172245Z 03004KT 16/M00 A301 RMK A01 T01581003  RH  033%=      5-min Rain = 0
KSM1 172250Z 03005KT 16/M00 A3009 RMK A01 T01551003  RH  034%=      5-min Rain = 0
KSM1 172255Z 03005KT 15/00 A3009 RMK A01 T01520002  RH  036%=      5-min Rain = 0
KSM1 172300Z 03005KT 15/00 A3009 RMK A01 T015100-0  RH  036%=      5-min Rain = 0
KSM1 172305Z 04003KT 15/00 A3009 RMK A01 T01480003  RH  038%=      5-min Rain = 0
KSM1 172310Z 04003KT 14/01 A301 RMK A01 T01440005  RH  039%=      5-min Rain = 0
KSM1 172315Z 04003KT 14/01 A301 RMK A01 T01410007  RH  040%=      5-min Rain = 0
KSM1 172320Z 04003KT 14/01 A301 RMK A01 T01390008  RH  041%=      5-min Rain = 0
KSM1 172325Z 04002KT 14/01 A301 RMK A01 T01370008  RH  042%=      5-min Rain = 0
KSM1 172330Z 04003KT 14/01 A301 RMK A01 T01360008  RH  042%=      5-min Rain = 0
KSM1 172335Z 04003KT 14/01 A301 RMK A01 T01350008  RH  042%=      5-min Rain = 0
KSM1 172340Z 04002KT 13/01 A3011 RMK A01 T01340009  RH  043%=      5-min Rain = 0
KSM1 172345Z 05002KT 13/01 A3011 RMK A01 T01300011  RH  045%=      5-min Rain = 0
KSM1 172350Z 06003KT 13/01 A301 RMK A01 T01250013  RH  047%=      5-min Rain = 0
KSM1 172355Z 06004KT 12/02 A3011 RMK A01 T01170015  RH  050%=      5-min Rain = 0
KSM1 180000Z 06004KT 11/01 A3011 RMK A01 T01130012  RH  051%=      5-min Rain = 0
KSM1 180005Z 06004KT 11/01 A3011 RMK A01 T01130010  RH  050%=      5-min Rain = 0
KSM1 180010Z 06005KT 11/01 A3011 RMK A01 T01120010  RH  050%=      5-min Rain = 0
KSM1 180015Z 06006KT 11/01 A3011 RMK A01 T01110010  RH  050%=      5-min Rain = 0
KSM1 180020Z 05007KT 11/01 A301 RMK A01 T01070012  RH  052%=      5-min Rain = 0
KSM1 180025Z 05006KT 10/01 A301 RMK A01 T01040011  RH  053%=      5-min Rain = 0
KSM1 180030Z 05006KT 10/01 A3011 RMK A01 T01020011  RH  054%=      5-min Rain = 0
KSM1 180035Z 06005KT 10/01 A3011 RMK A01 T00990010  RH  055%=      5-min Rain = 0
KSM1 180040Z 05005KT 10/01 A3011 RMK A01 T00980009  RH  055%=      5-min Rain = 0
KSM1 180045Z 05006KT 10/01 A3011 RMK A01 T00970008  RH  054%=      5-min Rain = 0
KSM1 180050Z 06005KT 10/01 A3011 RMK A01 T00960008  RH  055%=      5-min Rain = 0
KSM1 180055Z 06004KT 10/01 A3012 RMK A01 T00960007  RH  054%=      5-min Rain = 0
KSM1 180100Z 05004KT 10/01 A3012 RMK A01 T00980005  RH  053%=      5-min Rain = 0
KSM1 180105Z 05006KT 10/01 A3011 RMK A01 T00950007  RH  055%=      5-min Rain = 0
KSM1 180110Z 05005KT 09/01 A3011 RMK A01 T00920007  RH  056%=      5-min Rain = 0
KSM1 180115Z 06005KT 09/01 A3011 RMK A01 T00930007  RH  055%=      5-min Rain = 0
KSM1 180120Z 07004KT 10/01 A3012 RMK A01 T00950006  RH  054%=      5-min Rain = 0
KSM1 180125Z 07003KT 10/01 A3012 RMK A01 T00960006  RH  054%=      5-min Rain = 0
KSM1 180130Z 07003KT 09/01 A3012 RMK A01 T00930009  RH  056%=      5-min Rain = 0
KSM1 180135Z 10002KT 09/01 A3012 RMK A01 T00890008  RH  058%=      5-min Rain = 0
KSM1 180140Z 10001KT 09/01 A3012 RMK A01 T00860009  RH  059%=      5-min Rain = 0
KSM1 180145Z 10001KT 09/01 A3012 RMK A01 T00860010  RH  060%=      5-min Rain = 0
KSM1 180150Z 10000KT 09/01 A3012 RMK A01 T00890012  RH  059%=      5-min Rain = 0
KSM1 180155Z 10000KT 09/01 A3012 RMK A01 T00900014  RH  060%=      5-min Rain = 0
KSM1 180200Z 00000KT 09/01 A3012 RMK A01 T00870013  RH  061%=      5-min Rain = 0
KSM1 180205Z 00000KT 08/01 A3012 RMK A01 T00820012  RH  062%=      5-min Rain = 0
KSM1 180210Z 15001KT 08/01 A3012 RMK A01 T00790014  RH  065%=      5-min Rain = 0
KSM1 180215Z 18002KT 08/01 A3012 RMK A01 T00820013  RH  063%=      5-min Rain = 0
KSM1 180220Z 18002KT 08/01 A3012 RMK A01 T00820010  RH  061%=      5-min Rain = 0
KSM1 180225Z 19003KT 08/01 A3012 RMK A01 T00840009  RH  060%=      5-min Rain = 0
KSM1 180230Z 20004KT 09/01 A3012 RMK A01 T00880008  RH  058%=      5-min Rain = 0
KSM1 180235Z 20003KT 09/01 A3012 RMK A01 T00910007  RH  056%=      5-min Rain = 0
KSM1 180240Z 21003KT 09/01 A3012 RMK A01 T00910007  RH  056%=      5-min Rain = 0
KSM1 180245Z 22003KT 09/01 A3012 RMK A01 T00890008  RH  057%=      5-min Rain = 0
KSM1 180250Z 23004KT 09/01 A3013 RMK A01 T00860009  RH  059%=      5-min Rain = 0
KSM1 180255Z 23004KT 08/01 A3013 RMK A01 T00830009  RH  060%=      5-min Rain = 0
KSM1 180300Z 24003KT 08/01 A3013 RMK A01 T00800008  RH  061%=      5-min Rain = 0
KSM1 180305Z 25002KT 08/01 A3013 RMK A01 T00760007  RH  063%=      5-min Rain = 0
KSM1 180310Z 25002KT 07/01 A3013 RMK A01 T00660006  RH  067%=      5-min Rain = 0
KSM1 180315Z 25002KT 06/01 A3013 RMK A01 T00620010  RH  070%=      5-min Rain = 0
KSM1 180320Z 25003KT 06/01 A3013 RMK A01 T00640011  RH  070%=      5-min Rain = 0
KSM1 180325Z 25003KT 06/01 A3013 RMK A01 T00630011  RH  070%=      5-min Rain = 0
KSM1 180330Z 25004KT 07/01 A3014 RMK A01 T00650009  RH  069%=      5-min Rain = 0
KSM1 180335Z 25004KT 07/01 A3014 RMK A01 T00650009  RH  068%=      5-min Rain = 0
KSM1 180340Z 25003KT 06/01 A3013 RMK A01 T00640008  RH  068%=      5-min Rain = 0
KSM1 180345Z 26003KT 06/01 A3013 RMK A01 T00610007  RH  069%=      5-min Rain = 0
KSM1 180350Z 25003KT 06/01 A3013 RMK A01 T00580008  RH  071%=      5-min Rain = 0
KSM1 180355Z 24003KT 06/01 A3012 RMK A01 T00570007  RH  071%=      5-min Rain = 0
KSM1 180400Z 23003KT 06/01 A3012 RMK A01 T00570007  RH  071%=      5-min Rain = 0
KSM1 180405Z 24003KT 06/01 A3012 RMK A01 T00570007  RH  071%=      5-min Rain = 0
KSM1 180410Z 25003KT 06/01 A3012 RMK A01 T00580007  RH  071%=      5-min Rain = 0
KSM1 180415Z 25003KT 06/01 A3012 RMK A01 T00550006  RH  072%=      5-min Rain = 0
KSM1 180420Z 25003KT 05/01 A3012 RMK A01 T00540007  RH  073%=      5-min Rain = 0
KSM1 180425Z 25002KT 06/01 A3012 RMK A01 T00550006  RH  072%=      5-min Rain = 0
KSM1 180430Z 26002KT 05/01 A3012 RMK A01 T00500005  RH  074%=      5-min Rain = 0
KSM1 180435Z 26002KT 05/01 A3012 RMK A01 T00490005  RH  074%=      5-min Rain = 0
KSM1 180440Z 25003KT 05/01 A3012 RMK A01 T00480006  RH  075%=      5-min Rain = 0
KSM1 180445Z 25003KT 05/01 A3011 RMK A01 T00480006  RH  075%=      5-min Rain = 0
KSM1 180450Z 25003KT 05/01 A3011 RMK A01 T00470005  RH  075%=      5-min Rain = 0
KSM1 180455Z 25002KT 05/01 A3011 RMK A01 T00460005  RH  075%=      5-min Rain = 0
KSM1 180500Z 25002KT 04/00 A3011 RMK A01 T00440004  RH  076%=      5-min Rain = 0
KSM1 180505Z 24002KT 04/01 A3011 RMK A01 T00430005  RH  077%=      5-min Rain = 0
KSM1 180510Z 23002KT 05/01 A3011 RMK A01 T00450006  RH  077%=      5-min Rain = 0
KSM1 180515Z 22002KT 04/01 A301 RMK A01 T00440005  RH  077%=      5-min Rain = 0
KSM1 180520Z 22003KT 05/01 A301 RMK A01 T00450006  RH  077%=      5-min Rain = 0
KSM1 180525Z 22003KT 05/01 A3011 RMK A01 T00470007  RH  076%=      5-min Rain = 0
KSM1 180530Z 23002KT 05/01 A3011 RMK A01 T00480006  RH  075%=      5-min Rain = 0
KSM1 180535Z 22002KT 05/00 A3011 RMK A01 T00460004  RH  075%=      5-min Rain = 0
KSM1 180540Z 22002KT 04/00 A301 RMK A01 T00430003  RH  077%=      5-min Rain = 0
KSM1 180545Z 22002KT 04/01 A301 RMK A01 T00420005  RH  078%=      5-min Rain = 0
KSM1 180550Z 22003KT 04/01 A301 RMK A01 T00430005  RH  078%=      5-min Rain = 0
KSM1 180555Z 22004KT 05/01 A301 RMK A01 T00460007  RH  077%=      5-min Rain = 0

Page generated in 0.0094 seconds.